Time;durP1;ratioP1;P1;durP2;ratioP2;P2;SDS_P1;SDS_P2;PMS_P1;PMS_P2;Temp;Humidity;BMP_temperature;BMP_pressure;BME280_temperature;BME280_humidity;BME280_pressure;Samples;Min_cycle;Max_cycle;Signal;HPM_P1;HPM_P2
2023/07/05 00:01:42;;;;;;;5.20;2.93;;;19.50;99.90;;;;;;5009926;28;20789;-76
2023/07/05 00:04:09;;;;;;;4.90;2.13;;;19.50;99.90;;;;;;4994414;28;20242;-76
2023/07/05 00:06:35;;;;;;;4.77;2.40;;;19.60;99.90;;;;;;5012018;28;20229;-77
2023/07/05 00:09:02;;;;;;;4.77;2.27;;;19.60;99.90;;;;;;5015890;28;20569;-77
2023/07/05 00:11:28;;;;;;;3.70;2.60;;;19.60;99.90;;;;;;5020710;28;20600;-77
2023/07/05 00:13:53;;;;;;;6.40;2.40;;;19.60;99.90;;;;;;4988950;28;20743;-77
2023/07/05 00:16:20;;;;;;;4.10;2.70;;;19.60;99.90;;;;;;5006692;28;20622;-76
2023/07/05 00:18:46;;;;;;;3.40;2.47;;;19.60;99.90;;;;;;5020503;28;20708;-74
2023/07/05 00:21:12;;;;;;;3.90;2.27;;;19.60;99.90;;;;;;5015903;28;20605;-75
2023/07/05 00:23:39;;;;;;;2.80;2.17;;;19.60;99.90;;;;;;5014046;28;20178;-75
2023/07/05 00:26:06;;;;;;;2.90;1.63;;;19.60;99.90;;;;;;5012498;28;20592;-75
2023/07/05 00:28:33;;;;;;;3.07;1.93;;;19.60;99.90;;;;;;4996152;28;20670;-75
2023/07/05 00:30:59;;;;;;;3.00;1.80;;;19.70;99.90;;;;;;4995958;28;21143;-76
2023/07/05 00:33:25;;;;;;;3.57;1.80;;;19.70;99.90;;;;;;5013450;28;20612;-76
2023/07/05 00:35:53;;;;;;;4.37;1.63;;;19.70;99.90;;;;;;4995039;28;21053;-76
2023/07/05 00:38:20;;;;;;;2.60;1.90;;;19.70;99.90;;;;;;5012652;28;20597;-76
2023/07/05 00:40:47;;;;;;;3.73;1.80;;;19.70;99.90;;;;;;4979355;28;20586;-76
2023/07/05 00:43:13;;;;;;;3.10;1.80;;;19.70;99.90;;;;;;4978372;28;20573;-76
2023/07/05 00:46:04;;;;;;;2.63;1.60;;;19.70;99.90;;;;;;4995351;28;20589;-76
2023/07/05 00:48:37;;;;;;;2.90;1.80;;;19.70;99.90;;;;;;5003643;28;20606;-76
2023/07/05 00:51:17;;;;;;;3.40;1.50;;;19.70;99.90;;;;;;4978846;28;20585;-76
2023/07/05 00:53:44;;;;;;;2.63;1.30;;;19.70;99.90;;;;;;4977693;28;20645;-77
2023/07/05 00:56:20;;;;;;;3.33;1.40;;;19.70;99.90;;;;;;4978778;28;20601;-76
2023/07/05 00:58:46;;;;;;;3.07;1.40;;;19.60;99.90;;;;;;4978244;28;20643;-76
2023/07/05 01:01:12;;;;;;;2.87;1.40;;;19.60;99.90;;;;;;4978256;28;20593;-76
2023/07/05 01:03:39;;;;;;;4.40;1.53;;;19.50;99.90;;;;;;4962014;28;21099;-75
2023/07/05 01:06:06;;;;;;;3.23;1.40;;;19.40;99.90;;;;;;5012059;28;20182;-76
2023/07/05 01:08:32;;;;;;;2.47;1.30;;;19.40;99.90;;;;;;4977376;28;20573;-76
2023/07/05 01:11:38;;;;;;;3.13;1.53;;;19.30;99.90;;;;;;4994359;28;20617;-76
2023/07/05 01:14:13;;;;;;;3.20;1.30;;;19.30;99.90;;;;;;5005885;28;20625;-76
2023/07/05 01:17:21;;;;;;;2.30;1.20;;;19.20;99.90;;;;;;4999746;28;20625;-76
2023/07/05 01:19:57;;;;;;;2.80;1.60;;;19.30;99.90;;;;;;4978285;28;20696;-76
2023/07/05 01:22:42;;;;;;;2.33;1.10;;;19.20;99.90;;;;;;4977947;28;20581;-76
2023/07/05 01:25:43;;;;;;;2.77;1.40;;;19.20;99.90;;;;;;4961726;28;20577;-76
2023/07/05 01:28:25;;;;;;;2.30;1.50;;;19.20;99.90;;;;;;4978120;28;20615;-76
2023/07/05 01:30:53;;;;;;;2.60;1.23;;;19.20;99.90;;;;;;4962389;28;20581;-76
2023/07/05 01:33:33;;;;;;;2.17;1.00;;;19.30;99.90;;;;;;4977729;28;20636;-76
2023/07/05 01:35:59;;;;;;;4.43;1.10;;;19.30;99.90;;;;;;4994566;28;20592;-76
2023/07/05 01:38:25;;;;;;;2.40;1.03;;;19.30;99.90;;;;;;5012000;28;20561;-76
2023/07/05 01:40:55;;;;;;;2.37;1.20;;;19.40;99.90;;;;;;4978435;28;20340;-77
2023/07/05 01:43:25;;;;;;;1.67;0.80;;;19.40;99.90;;;;;;5011523;28;20260;-76
2023/07/05 01:46:18;;;;;;;2.60;1.33;;;19.40;99.90;;;;;;4978059;28;20590;-77
2023/07/05 01:49:02;;;;;;;2.57;1.40;;;19.40;99.90;;;;;;5010961;28;20977;-76
2023/07/05 01:51:31;;;;;;;3.60;1.10;;;19.40;99.90;;;;;;4993747;28;20574;-76
2023/07/05 01:54:02;;;;;;;1.80;1.10;;;19.40;99.90;;;;;;5009894;28;20659;-76
2023/07/05 01:56:36;;;;;;;1.70;1.10;;;19.50;99.90;;;;;;4993994;28;20609;-76
2023/07/05 01:59:05;;;;;;;2.20;1.00;;;19.50;99.90;;;;;;4977589;28;20584;-76
2023/07/05 02:01:34;;;;;;;1.97;0.90;;;19.50;99.90;;;;;;4993032;28;20676;-75
2023/07/05 02:04:02;;;;;;;1.80;1.10;;;19.50;99.90;;;;;;4961533;28;20632;-75
2023/07/05 02:06:30;;;;;;;1.80;1.00;;;19.60;99.90;;;;;;4977630;28;20609;-75
2023/07/05 02:08:56;;;;;;;2.00;1.03;;;19.60;99.90;;;;;;4993509;28;20588;-75
2023/07/05 02:11:23;;;;;;;1.77;1.00;;;19.60;99.90;;;;;;4976655;28;20679;-75
2023/07/05 02:13:49;;;;;;;2.20;1.10;;;19.60;99.90;;;;;;4993600;28;20230;-75
2023/07/05 02:16:15;;;;;;;2.13;0.90;;;19.70;99.90;;;;;;4992972;28;20594;-75
2023/07/05 02:18:40;;;;;;;1.80;1.00;;;19.70;99.90;;;;;;5009379;28;20192;-76
2023/07/05 02:21:10;;;;;;;1.90;0.90;;;19.70;99.90;;;;;;4976592;28;20716;-75
2023/07/05 02:23:36;;;;;;;2.03;1.03;;;19.70;99.90;;;;;;5009855;28;20944;-75
2023/07/05 02:26:05;;;;;;;2.70;1.00;;;19.60;99.90;;;;;;4976815;28;20612;-75
2023/07/05 02:28:32;;;;;;;1.70;1.20;;;19.60;99.90;;;;;;4992923;28;20593;-75
2023/07/05 02:31:03;;;;;;;2.53;1.10;;;19.50;99.90;;;;;;5009201;28;20676;-75
2023/07/05 02:33:29;;;;;;;2.83;0.80;;;19.40;99.90;;;;;;4992725;28;20629;-75
2023/07/05 02:35:54;;;;;;;2.33;0.97;;;19.40;99.90;;;;;;4993190;28;20677;-75
2023/07/05 02:38:21;;;;;;;2.17;1.10;;;19.40;99.90;;;;;;4976165;28;20689;-74
2023/07/05 02:40:48;;;;;;;2.73;1.20;;;19.30;99.90;;;;;;4993262;28;20724;-75
2023/07/05 02:43:13;;;;;;;2.63;1.03;;;19.30;99.90;;;;;;4976084;28;20244;-74
2023/07/05 02:45:39;;;;;;;2.63;1.00;;;19.20;99.90;;;;;;5009215;28;20597;-75
2023/07/05 02:48:05;;;;;;;2.90;1.10;;;19.20;99.90;;;;;;5008641;28;20340;-74
2023/07/05 02:50:30;;;;;;;3.00;1.63;;;19.10;99.90;;;;;;5010664;28;20185;-75
2023/07/05 02:52:56;;;;;;;1.77;1.00;;;19.10;99.90;;;;;;4992411;28;20193;-74
2023/07/05 02:55:22;;;;;;;2.33;1.37;;;19.10;99.90;;;;;;5009164;28;20177;-75
2023/07/05 02:57:47;;;;;;;2.30;1.20;;;19.10;99.90;;;;;;4975972;28;20198;-74
2023/07/05 03:00:15;;;;;;;2.03;1.00;;;19.10;99.90;;;;;;4975386;28;20174;-74
2023/07/05 03:02:41;;;;;;;1.70;0.90;;;19.10;99.90;;;;;;5010111;28;20585;-76
2023/07/05 03:05:08;;;;;;;1.90;1.00;;;19.10;99.90;;;;;;5010389;28;20948;-75
2023/07/05 03:07:36;;;;;;;1.70;0.87;;;19.00;99.90;;;;;;5010177;28;20249;-75
2023/07/05 03:10:01;;;;;;;1.90;0.80;;;18.90;99.90;;;;;;4976456;28;20593;-76
2023/07/05 03:12:28;;;;;;;1.77;1.00;;;18.90;99.90;;;;;;5008300;28;20585;-76
2023/07/05 03:14:53;;;;;;;2.50;0.73;;;18.80;99.90;;;;;;4992722;28;20625;-76
2023/07/05 03:17:19;;;;;;;2.17;1.00;;;18.80;99.90;;;;;;4992046;28;20834;-76
2023/07/05 03:19:47;;;;;;;1.50;0.80;;;18.70;99.90;;;;;;5010568;28;20257;-76
2023/07/05 03:22:14;;;;;;;2.20;0.80;;;18.70;99.90;;;;;;5008599;28;21009;-76
2023/07/05 03:24:39;;;;;;;1.90;0.80;;;18.60;99.90;;;;;;5010457;28;20182;-76
2023/07/05 03:27:05;;;;;;;2.33;0.93;;;18.60;99.90;;;;;;4992006;28;21294;-76
2023/07/05 03:29:31;;;;;;;4.50;0.80;;;18.50;99.90;;;;;;4976373;28;20182;-76
2023/07/05 03:31:58;;;;;;;1.70;0.73;;;18.50;99.90;;;;;;4991738;28;20178;-76
2023/07/05 03:34:25;;;;;;;2.20;0.80;;;18.40;99.90;;;;;;4976424;28;21219;-76
2023/07/05 03:36:51;;;;;;;5.83;1.37;;;18.40;99.90;;;;;;5009641;28;20652;-77
2023/07/05 03:39:16;;;;;;;3.63;1.53;;;18.30;99.90;;;;;;4995119;28;20571;-77
2023/07/05 03:41:42;;;;;;;2.20;0.90;;;18.30;99.90;;;;;;4996353;28;20174;-77
2023/07/05 03:44:08;;;;;;;3.43;0.80;;;18.30;99.90;;;;;;5012514;28;20178;-77
2023/07/05 03:46:34;;;;;;;2.23;0.90;;;18.20;99.90;;;;;;4996018;28;20205;-76
2023/07/05 03:48:59;;;;;;;2.40;0.90;;;18.20;99.90;;;;;;4997611;28;20174;-76
2023/07/05 03:51:25;;;;;;;1.40;0.70;;;18.10;99.90;;;;;;4979701;28;20187;-76
2023/07/05 03:53:56;;;;;;;1.77;0.80;;;18.10;99.90;;;;;;5013611;28;20198;-76
2023/07/05 03:56:23;;;;;;;2.90;0.97;;;18.00;99.90;;;;;;4996723;28;20617;-76
2023/07/05 03:58:50;;;;;;;1.77;0.80;;;18.00;99.90;;;;;;5026011;28;21186;-76
2023/07/05 04:01:19;;;;;;;2.37;0.87;;;18.00;99.90;;;;;;4998479;28;20580;-76
2023/07/05 04:03:48;;;;;;;2.23;0.90;;;18.00;99.90;;;;;;5033352;28;20913;-77
2023/07/05 04:06:14;;;;;;;2.00;0.90;;;18.00;99.90;;;;;;5015351;28;20584;-76
2023/07/05 04:08:40;;;;;;;2.00;0.90;;;18.10;99.90;;;;;;5032786;28;20647;-77
2023/07/05 04:11:05;;;;;;;2.03;0.90;;;18.10;99.90;;;;;;5032773;28;21194;-77
2023/07/05 04:13:31;;;;;;;1.70;0.80;;;18.10;99.90;;;;;;5015038;28;20645;-77
2023/07/05 04:16:10;;;;;;;2.10;0.90;;;18.00;99.90;;;;;;5015131;28;20200;-76
2023/07/05 04:18:37;;;;;;;1.70;0.90;;;18.00;99.90;;;;;;5032538;28;20181;-77
2023/07/05 04:21:03;;;;;;;2.13;0.83;;;17.90;99.90;;;;;;5032761;28;20573;-77
2023/07/05 04:23:29;;;;;;;2.30;0.80;;;17.80;99.90;;;;;;5015144;28;20576;-77
2023/07/05 04:26:06;;;;;;;2.13;0.80;;;17.80;99.90;;;;;;5033138;28;20626;-77
2023/07/05 04:28:33;;;;;;;2.43;1.10;;;17.70;99.90;;;;;;5030954;28;20181;-76
2023/07/05 04:31:00;;;;;;;1.90;0.97;;;17.70;99.90;;;;;;5032869;28;20650;-76
2023/07/05 04:33:27;;;;;;;2.67;1.00;;;17.60;99.90;;;;;;5033304;28;20667;-77
2023/07/05 04:35:55;;;;;;;1.90;0.90;;;17.50;99.90;;;;;;5015955;28;20615;-76
2023/07/05 04:38:20;;;;;;;2.10;1.00;;;17.50;99.90;;;;;;5031590;28;20703;-76
2023/07/05 04:40:46;;;;;;;2.00;1.17;;;17.50;99.90;;;;;;4973646;28;20677;-77
2023/07/05 04:43:12;;;;;;;2.40;1.00;;;17.40;99.90;;;;;;5012417;28;20285;-76
2023/07/05 04:45:38;;;;;;;1.70;1.00;;;17.40;99.90;;;;;;5012749;28;20692;-77
2023/07/05 04:48:04;;;;;;;2.77;1.10;;;17.40;99.90;;;;;;5014347;28;20205;-77
2023/07/05 04:50:29;;;;;;;2.70;1.13;;;17.40;99.90;;;;;;4996422;28;20174;-77
2023/07/05 04:52:56;;;;;;;3.27;1.30;;;17.50;99.90;;;;;;5015676;28;20589;-76
2023/07/05 04:55:22;;;;;;;2.00;1.17;;;17.50;99.90;;;;;;5029803;28;20178;-77
2023/07/05 04:57:49;;;;;;;2.80;1.40;;;17.50;99.90;;;;;;5021037;28;20608;-77
2023/07/05 05:00:16;;;;;;;2.83;1.00;;;17.60;99.90;;;;;;5037815;28;20666;-77
2023/07/05 05:02:42;;;;;;;2.80;1.10;;;17.70;99.90;;;;;;5021674;28;20239;-76
2023/07/05 05:05:08;;;;;;;2.70;1.17;;;17.70;99.90;;;;;;5038520;28;20572;-77
2023/07/05 05:07:34;;;;;;;3.67;1.43;;;17.80;99.90;;;;;;5036505;28;20625;-77
2023/07/05 05:10:01;;;;;;;2.20;1.23;;;17.90;99.90;;;;;;5037181;28;20600;-77
2023/07/05 05:12:27;;;;;;;2.40;1.60;;;17.90;99.90;;;;;;5036345;28;20639;-77
2023/07/05 05:14:53;;;;;;;3.10;1.83;;;18.00;99.90;;;;;;5018983;28;20644;-77
2023/07/05 05:17:19;;;;;;;2.83;1.33;;;18.00;99.90;;;;;;4999919;28;20292;-77
2023/07/05 05:19:44;;;;;;;3.50;1.43;;;18.00;99.90;;;;;;5033030;28;20174;-76
2023/07/05 05:22:11;;;;;;;3.27;1.77;;;18.10;99.90;;;;;;4998830;28;20591;-77
2023/07/05 05:24:37;;;;;;;4.73;1.63;;;18.20;99.90;;;;;;5035849;28;20197;-77
2023/07/05 05:27:03;;;;;;;3.67;2.17;;;18.30;99.90;;;;;;5034941;28;20643;-77
2023/07/05 05:29:30;;;;;;;3.40;1.50;;;18.40;99.90;;;;;;5002518;28;20581;-77
2023/07/05 05:31:56;;;;;;;4.17;1.70;;;18.40;99.90;;;;;;5035387;28;20750;-76
2023/07/05 05:34:25;;;;;;;5.07;1.80;;;18.50;99.90;;;;;;5037996;28;20617;-76
2023/07/05 05:36:52;;;;;;;2.40;1.27;;;18.60;99.90;;;;;;5020055;28;20678;-77
2023/07/05 05:39:19;;;;;;;3.80;2.03;;;18.60;99.90;;;;;;5038012;28;20688;-77
2023/07/05 05:41:44;;;;;;;3.10;1.47;;;18.70;99.90;;;;;;5038127;28;20595;-77
2023/07/05 05:44:10;;;;;;;4.07;2.03;;;18.70;99.90;;;;;;5037463;28;21127;-77
2023/07/05 05:46:37;;;;;;;3.30;1.77;;;18.80;99.90;;;;;;4981794;28;20662;-77
2023/07/05 05:49:03;;;;;;;2.50;1.73;;;18.90;99.90;;;;;;4996648;28;20634;-77
2023/07/05 05:51:38;;;;;;;2.50;1.43;;;19.00;99.90;;;;;;4997386;28;20605;-77
2023/07/05 05:54:04;;;;;;;3.27;1.50;;;19.10;99.90;;;;;;4975451;28;20210;-75
2023/07/05 05:56:30;;;;;;;3.37;1.90;;;19.30;99.90;;;;;;4993434;28;20610;-76
2023/07/05 05:58:56;;;;;;;2.40;1.40;;;19.80;99.90;;;;;;4958974;28;20585;-76
2023/07/05 06:01:22;;;;;;;3.70;1.43;;;20.60;99.90;;;;;;4995150;28;20203;-77
2023/07/05 06:03:47;;;;;;;4.17;1.30;;;21.40;99.90;;;;;;5011320;28;20174;-76
2023/07/05 06:06:13;;;;;;;3.07;1.53;;;22.10;99.90;;;;;;5002091;28;20217;-78
2023/07/05 06:08:38;;;;;;;2.10;1.20;;;22.60;99.90;;;;;;5017849;28;20170;-78
2023/07/05 06:11:04;;;;;;;2.73;1.10;;;22.90;99.90;;;;;;5018236;28;20197;-77
2023/07/05 06:13:31;;;;;;;2.87;1.30;;;23.00;99.90;;;;;;5001546;28;20198;-76
2023/07/05 06:15:59;;;;;;;3.97;1.30;;;22.80;99.90;;;;;;4987681;28;20697;-76
2023/07/05 06:18:28;;;;;;;2.50;1.60;;;22.60;99.90;;;;;;5017968;28;20620;-77
2023/07/05 06:20:55;;;;;;;2.40;1.20;;;22.30;99.90;;;;;;5004320;28;20591;-77
2023/07/05 06:23:21;;;;;;;3.10;1.10;;;21.90;99.90;;;;;;4991524;28;21164;-77
2023/07/05 06:25:48;;;;;;;2.43;1.10;;;21.60;99.90;;;;;;5002170;28;20593;-77
2023/07/05 06:28:17;;;;;;;2.50;1.20;;;21.30;99.90;;;;;;4976379;28;20626;-77
2023/07/05 06:30:45;;;;;;;2.70;1.30;;;21.10;99.90;;;;;;4985749;28;20586;-76
2023/07/05 06:33:11;;;;;;;2.70;1.30;;;21.00;99.90;;;;;;4992854;28;20682;-77
2023/07/05 06:35:37;;;;;;;2.97;0.97;;;20.80;99.90;;;;;;4979333;28;20591;-76
2023/07/05 06:38:03;;;;;;;2.80;1.37;;;20.60;99.90;;;;;;5011104;28;20704;-77
2023/07/05 06:40:29;;;;;;;1.90;1.00;;;20.50;99.90;;;;;;5001001;28;20931;-77
2023/07/05 06:42:55;;;;;;;1.97;1.10;;;20.40;99.90;;;;;;5002518;28;20585;-76
2023/07/05 06:45:27;;;;;;;2.50;1.10;;;20.30;99.90;;;;;;4994429;28;20634;-76
2023/07/05 06:47:53;;;;;;;1.97;1.07;;;20.20;99.90;;;;;;4977044;28;20617;-76
2023/07/05 06:50:18;;;;;;;2.23;1.10;;;20.10;99.90;;;;;;5010897;28;20622;-80
2023/07/05 06:52:44;;;;;;;2.30;1.30;;;20.10;99.90;;;;;;4977049;28;20174;-78
2023/07/05 06:55:10;;;;;;;2.00;0.90;;;20.00;99.90;;;;;;4995652;28;20250;-78
2023/07/05 06:57:36;;;;;;;3.10;1.10;;;20.00;99.90;;;;;;4982846;28;20221;-78
2023/07/05 07:00:05;;;;;;;2.37;0.80;;;20.00;99.90;;;;;;5002218;28;20946;-77
2023/07/05 07:02:31;;;;;;;2.03;1.20;;;20.00;99.90;;;;;;5018059;28;20185;-78
2023/07/05 07:04:57;;;;;;;2.03;0.80;;;20.50;99.90;;;;;;4998692;28;20579;-78
2023/07/05 07:07:23;;;;;;;2.67;0.97;;;21.30;99.90;;;;;;4995670;28;20198;-77
2023/07/05 07:09:49;;;;;;;1.70;0.90;;;22.00;99.90;;;;;;4994758;28;20646;-77
2023/07/05 07:12:14;;;;;;;2.10;0.80;;;22.30;99.90;;;;;;5016835;28;20173;-78
2023/07/05 07:14:40;;;;;;;2.70;1.00;;;22.40;99.90;;;;;;5030153;28;20652;-77
2023/07/05 07:17:06;;;;;;;5.17;0.80;;;22.40;99.90;;;;;;5030600;28;20657;-78
2023/07/05 07:19:31;;;;;;;2.57;0.90;;;22.40;99.90;;;;;;4996273;28;20738;-77
2023/07/05 07:21:57;;;;;;;3.50;1.20;;;22.30;99.90;;;;;;5010454;28;20584;-78
2023/07/05 07:24:24;;;;;;;3.00;0.80;;;22.30;99.90;;;;;;4988997;28;20189;-77
2023/07/05 07:26:51;;;;;;;2.90;0.90;;;22.20;99.90;;;;;;4992799;28;20271;-77
2023/07/05 07:29:17;;;;;;;3.07;0.80;;;22.10;99.90;;;;;;5008546;28;20652;-77
2023/07/05 07:31:42;;;;;;;3.20;0.70;;;22.00;99.90;;;;;;5007572;28;21368;-76
2023/07/05 07:34:08;;;;;;;1.97;0.70;;;21.80;99.90;;;;;;5010186;28;20208;-76
2023/07/05 07:36:35;;;;;;;2.10;0.80;;;21.60;99.90;;;;;;4992426;28;20198;-75
2023/07/05 07:39:02;;;;;;;1.60;0.83;;;21.40;99.90;;;;;;4993399;28;20194;-77
2023/07/05 07:41:34;;;;;;;2.10;0.87;;;21.30;99.90;;;;;;4992726;28;20623;-77
2023/07/05 07:44:02;;;;;;;2.60;0.73;;;21.10;99.90;;;;;;4993166;28;20599;-76
2023/07/05 07:46:29;;;;;;;2.33;0.80;;;21.00;99.90;;;;;;4992833;28;20668;-76
2023/07/05 07:48:58;;;;;;;1.80;0.80;;;20.90;99.90;;;;;;5010124;28;20586;-76
2023/07/05 07:51:29;;;;;;;2.17;0.70;;;20.80;99.90;;;;;;5053741;22;20683;-79
2023/07/05 07:53:55;;;;;;;2.13;0.77;;;20.80;99.90;;;;;;5041453;28;20628;-79
2023/07/05 07:56:23;;;;;;;1.60;0.90;;;20.70;99.90;;;;;;5053737;28;20575;-79
2023/07/05 07:58:51;;;;;;;2.20;1.00;;;20.70;99.90;;;;;;5015832;28;20586;-80
2023/07/05 08:01:19;;;;;;;1.87;0.90;;;20.60;99.90;;;;;;5049156;28;21181;-79
2023/07/05 08:03:44;;;;;;;1.80;0.80;;;20.60;99.90;;;;;;5032259;28;20583;-79
2023/07/05 08:06:11;;;;;;;2.30;0.70;;;20.50;99.90;;;;;;5032084;28;20594;-79
2023/07/05 08:08:38;;;;;;;3.80;0.77;;;20.50;99.90;;;;;;5049524;28;20550;-79
2023/07/05 08:11:05;;;;;;;1.70;0.70;;;20.40;99.90;;;;;;5049745;28;20669;-79
2023/07/05 08:13:31;;;;;;;2.67;0.67;;;20.40;99.90;;;;;;5049850;28;21098;-79
2023/07/05 08:15:58;;;;;;;2.10;0.80;;;20.30;99.90;;;;;;5049923;28;20559;-81
2023/07/05 08:18:24;;;;;;;4.43;1.00;;;20.40;99.90;;;;;;5048994;28;20588;-81
2023/07/05 08:20:50;;;;;;;2.23;0.70;;;20.50;99.90;;;;;;4999301;28;20633;-80
2023/07/05 08:23:15;;;;;;;2.33;0.80;;;20.60;99.90;;;;;;5049404;28;21158;-80
2023/07/05 08:25:43;;;;;;;4.53;0.80;;;20.80;99.90;;;;;;5034828;28;20652;-80
2023/07/05 08:28:13;;;;;;;2.33;0.70;;;21.10;99.90;;;;;;5052704;28;20169;-79
2023/07/05 08:30:39;;;;;;;2.13;0.80;;;21.30;99.90;;;;;;5057982;28;20733;-79
2023/07/05 08:33:06;;;;;;;1.50;0.60;;;21.50;99.90;;;;;;5034991;28;20568;-80
2023/07/05 08:35:33;;;;;;;2.10;0.80;;;21.50;99.90;;;;;;5018685;28;21149;-80
2023/07/05 08:37:59;;;;;;;1.90;0.80;;;21.60;99.90;;;;;;5034914;28;20606;-80
2023/07/05 08:40:33;;;;;;;2.30;0.70;;;21.50;99.90;;;;;;5034758;28;20616;-80
2023/07/05 08:43:22;;;;;;;2.30;0.90;;;21.40;99.90;;;;;;5034849;28;21130;-80
2023/07/05 08:45:57;;;;;;;2.53;1.27;;;21.30;99.90;;;;;;5019900;28;20714;-81
2023/07/05 08:48:24;;;;;;;2.20;0.80;;;21.20;99.90;;;;;;5052156;28;21112;-81
2023/07/05 08:50:55;;;;;;;2.30;0.67;;;21.10;99.90;;;;;;5052498;28;20738;-80
2023/07/05 08:53:21;;;;;;;1.90;0.70;;;21.10;99.90;;;;;;5052602;28;20200;-80
2023/07/05 08:56:00;;;;;;;1.90;0.77;;;21.10;99.90;;;;;;5052568;28;20625;-80
2023/07/05 08:58:41;;;;;;;3.40;1.00;;;21.10;99.90;;;;;;5034582;28;20682;-80
2023/07/05 09:01:13;;;;;;;4.83;0.63;;;21.10;99.90;;;;;;5033812;28;21233;-80
2023/07/05 09:03:39;;;;;;;2.60;0.70;;;21.50;99.90;;;;;;5034832;28;20599;-79
2023/07/05 09:06:12;;;;;;;3.20;0.80;;;22.10;99.90;;;;;;5034489;28;20590;-79
2023/07/05 09:08:38;;;;;;;2.93;0.87;;;22.90;99.90;;;;;;5038913;28;20590;-79
2023/07/05 09:11:11;;;;;;;2.23;0.70;;;24.00;99.90;;;;;;5034260;28;21016;-78
2023/07/05 09:13:39;;;;;;;1.40;0.60;;;24.90;99.90;;;;;;5052642;28;20201;-79
2023/07/05 09:16:24;;;;;;;1.40;0.60;;;25.70;99.90;;;;;;5034360;28;20591;-78
2023/07/05 09:19:18;;;;;;;2.03;0.70;;;26.40;99.90;;;;;;5034107;28;20621;-79
2023/07/05 09:21:55;;;;;;;1.87;0.67;;;27.50;99.90;;;;;;5033734;28;20994;-79
2023/07/05 09:24:31;;;;;;;1.60;0.60;;;28.40;99.50;;;;;;5018072;28;20907;-79
2023/07/05 09:27:16;;;;;;;2.07;0.70;;;29.10;98.30;;;;;;5051605;28;20575;-79
2023/07/05 09:30:06;;;;;;;2.53;0.70;;;29.70;95.50;;;;;;5034488;28;20668;-79
2023/07/05 09:32:40;;;;;;;5.40;0.70;;;30.10;93.10;;;;;;5017168;28;20931;-80
2023/07/05 09:35:23;;;;;;;3.00;0.70;;;30.50;91.50;;;;;;5052020;28;20623;-79
2023/07/05 09:37:58;;;;;;;2.80;0.70;;;30.80;85.10;;;;;;5033230;28;20583;-79
2023/07/05 09:40:30;;;;;;;1.87;0.70;;;30.70;80.70;;;;;;5034011;28;20642;-78
2023/07/05 09:43:01;;;;;;;2.75;0.80;;;30.40;78.20;;;;;;5050879;28;20728;-77
2023/07/05 09:45:27;;;;;;;2.57;0.70;;;29.70;64.90;;;;;;5055380;28;20252;-77
2023/07/05 09:48:11;;;;;;;1.83;0.70;;;29.50;71.30;;;;;;5033647;28;20596;-77
2023/07/05 09:50:49;;;;;;;2.80;0.90;;;29.40;67.40;;;;;;5033076;28;20647;-78
2023/07/05 09:53:39;;;;;;;3.00;0.70;;;29.30;70.30;;;;;;5033599;28;20627;-78
2023/07/05 09:56:12;;;;;;;2.33;0.70;;;29.00;69.50;;;;;;5033768;28;20628;-78
2023/07/05 09:58:40;;;;;;;4.50;0.90;;;28.90;68.00;;;;;;5033342;28;20583;-78
2023/07/05 10:01:13;;;;;;;4.27;1.00;;;29.00;71.20;;;;;;5033246;28;20611;-79
2023/07/05 10:03:54;;;;;;;2.57;1.40;;;28.80;68.20;;;;;;5033260;28;20591;-79
2023/07/05 10:06:23;;;;;;;2.80;1.00;;;28.80;68.20;;;;;;5051250;28;20599;-79
2023/07/05 10:08:51;;;;;;;6.23;1.20;;;29.00;71.20;;;;;;5033756;28;20591;-79
2023/07/05 10:11:25;;;;;;;3.87;1.00;;;28.80;68.50;;;;;;5050857;28;20615;-79
2023/07/05 10:14:06;;;;;;;3.03;0.70;;;28.60;66.70;;;;;;5033904;28;20646;-79
2023/07/05 10:16:54;;;;;;;2.50;0.70;;;28.50;68.20;;;;;;5033008;28;20583;-78
2023/07/05 10:19:24;;;;;;;2.73;0.70;;;28.60;68.90;;;;;;5034063;28;20583;-78
2023/07/05 10:22:06;;;;;;;3.03;0.80;;;28.70;69.10;;;;;;5035693;28;20603;-78
2023/07/05 10:24:44;;;;;;;2.43;0.80;;;28.60;66.00;;;;;;5051697;28;20588;-79
2023/07/05 10:27:41;;;;;;;3.30;0.70;;;28.60;64.70;;;;;;5050293;28;20682;-79
2023/07/05 10:30:13;;;;;;;3.70;1.00;;;28.50;65.10;;;;;;5033056;28;20623;-79
2023/07/05 10:32:39;;;;;;;3.13;1.10;;;28.40;66.60;;;;;;5016231;28;20670;-80
2023/07/05 10:35:25;;;;;;;2.83;1.10;;;28.30;66.50;;;;;;5016836;28;20635;-79
2023/07/05 10:37:52;;;;;;;3.33;1.47;;;28.20;63.50;;;;;;5052403;28;20598;-79
2023/07/05 10:40:20;;;;;;;5.20;2.10;;;28.00;64.20;;;;;;5033428;28;21146;-79
2023/07/05 10:42:51;;;;;;;2.70;1.13;;;27.70;63.10;;;;;;5050392;28;20571;-79
2023/07/05 10:45:19;;;;;;;2.00;1.20;;;27.40;61.80;;;;;;5033128;28;20568;-80
2023/07/05 10:47:52;;;;;;;3.60;1.03;;;27.20;62.00;;;;;;5050902;28;20572;-79
2023/07/05 10:50:25;;;;;;;4.60;1.10;;;26.90;61.60;;;;;;5050405;28;20611;-79
2023/07/05 10:53:03;;;;;;;4.47;0.87;;;26.60;61.90;;;;;;5032815;28;20566;-79
2023/07/05 10:55:45;;;;;;;3.20;0.73;;;26.60;62.60;;;;;;5050245;28;20599;-79
2023/07/05 10:58:17;;;;;;;3.13;1.10;;;26.70;64.70;;;;;;5055162;28;20654;-79
2023/07/05 11:01:07;;;;;;;4.30;1.50;;;26.70;63.20;;;;;;5033010;28;20642;-78
2023/07/05 11:03:53;;;;;;;3.80;1.17;;;26.80;62.80;;;;;;5033483;28;20622;-80
2023/07/05 11:06:19;;;;;;;2.40;0.90;;;26.90;64.60;;;;;;5050620;28;20576;-79
2023/07/05 11:08:45;;;;;;;2.50;0.80;;;27.20;66.40;;;;;;5032766;28;20591;-79
2023/07/05 11:11:40;;;;;;;3.30;1.10;;;27.30;65.00;;;;;;5032032;28;20634;-79
2023/07/05 11:14:12;;;;;;;5.63;1.60;;;27.30;60.50;;;;;;5048786;28;20631;-79
2023/07/05 11:16:40;;;;;;;3.03;0.90;;;27.40;62.80;;;;;;5015615;28;20583;-78
2023/07/05 11:19:13;;;;;;;2.57;0.80;;;27.40;62.80;;;;;;5051219;28;20590;-78
2023/07/05 11:21:44;;;;;;;3.33;1.13;;;27.30;60.30;;;;;;5032078;28;20698;-79
2023/07/05 11:24:12;;;;;;;6.47;1.43;;;27.20;60.20;;;;;;5050795;28;20572;-79
2023/07/05 11:26:41;;;;;;;2.13;0.73;;;27.00;60.60;;;;;;5049570;28;20579;-79
2023/07/05 11:29:27;;;;;;;2.90;1.00;;;27.00;61.30;;;;;;5032396;28;20575;-78
2023/07/05 11:31:53;;;;;;;2.97;0.83;;;27.10;61.20;;;;;;5031899;28;20622;-79
2023/07/05 11:34:21;;;;;;;1.93;0.70;;;27.40;65.80;;;;;;5056163;28;20627;-79
2023/07/05 11:36:51;;;;;;;3.47;0.80;;;27.70;65.70;;;;;;5016656;28;20185;-78
2023/07/05 11:39:38;;;;;;;3.73;0.90;;;28.10;66.10;;;;;;5015650;28;20584;-79
2023/07/05 11:42:12;;;;;;;4.40;0.80;;;28.40;63.70;;;;;;5049678;28;20630;-79
2023/07/05 11:44:48;;;;;;;3.37;0.93;;;28.70;60.70;;;;;;5032247;28;20651;-79
2023/07/05 11:47:23;;;;;;;3.23;1.50;;;28.70;61.20;;;;;;5032079;28;20632;-79
2023/07/05 11:49:52;;;;;;;6.00;2.87;;;28.60;58.80;;;;;;5050054;28;20580;-80
2023/07/05 11:52:22;;;;;;;2.67;1.53;;;28.40;58.10;;;;;;5015380;28;20599;-80
2023/07/05 11:55:09;;;;;;;3.70;1.03;;;28.00;57.50;;;;;;5032226;28;20612;-80
2023/07/05 11:57:45;;;;;;;2.70;0.80;;;27.60;55.90;;;;;;5049566;28;20572;-80
2023/07/05 12:00:19;;;;;;;4.47;0.80;;;27.30;56.60;;;;;;5052625;28;20714;-80
2023/07/05 12:02:45;;;;;;;4.90;0.90;;;27.10;58.80;;;;;;5035972;28;20619;-80
2023/07/05 12:05:20;;;;;;;3.60;0.87;;;27.00;59.30;;;;;;5053693;28;20602;-80
2023/07/05 12:08:03;;;;;;;4.00;0.93;;;27.00;60.30;;;;;;5035940;28;20593;-80
2023/07/05 12:10:32;;;;;;;1.90;1.00;;;27.10;59.10;;;;;;5056381;28;20690;-80
2023/07/05 12:12:57;;;;;;;5.30;1.57;;;27.20;60.50;;;;;;5036306;28;20679;-79
2023/07/05 12:15:23;;;;;;;3.70;0.90;;;27.30;60.00;;;;;;5053595;28;20741;-79
2023/07/05 12:17:50;;;;;;;4.37;0.90;;;27.30;59.50;;;;;;5053428;28;20191;-79
2023/07/05 12:20:30;;;;;;;2.90;0.70;;;27.20;58.40;;;;;;5035213;28;20201;-80
2023/07/05 12:22:57;;;;;;;1.70;0.80;;;27.10;57.90;;;;;;5053427;28;20605;-79
2023/07/05 12:25:24;;;;;;;3.20;0.80;;;26.80;58.00;;;;;;5035697;28;20966;-79
2023/07/05 12:27:51;;;;;;;3.30;0.80;;;26.60;57.90;;;;;;5035207;28;20603;-79
2023/07/05 12:30:20;;;;;;;4.83;1.00;;;26.30;58.10;;;;;;5035387;28;20607;-78
2023/07/05 12:32:54;;;;;;;4.43;1.33;;;26.10;58.60;;;;;;5053439;28;20654;-80
2023/07/05 12:35:25;;;;;;;5.00;1.00;;;26.00;58.50;;;;;;5053741;28;20947;-80
2023/07/05 12:37:53;;;;;;;2.70;1.10;;;25.70;58.80;;;;;;5037293;28;20978;-80
2023/07/05 12:40:37;;;;;;;5.83;1.10;;;25.50;58.90;;;;;;5037657;28;20617;-80
2023/07/05 12:43:06;;;;;;;2.80;1.20;;;25.20;59.20;;;;;;5036289;28;20579;-80
2023/07/05 12:45:38;;;;;;;7.20;1.43;;;25.00;60.00;;;;;;5053725;28;20579;-80
2023/07/05 12:48:24;;;;;;;4.20;1.10;;;24.80;61.30;;;;;;5036635;28;20580;-79
2023/07/05 12:51:00;;;;;;;3.33;1.20;;;24.70;62.50;;;;;;5055772;28;20721;-79
2023/07/05 12:53:30;;;;;;;2.10;0.80;;;24.70;63.00;;;;;;5035810;28;20626;-80
2023/07/05 12:56:03;;;;;;;5.20;1.57;;;24.70;63.70;;;;;;5035995;28;20609;-79
2023/07/05 12:58:30;;;;;;;2.80;1.87;;;24.70;64.10;;;;;;5053752;28;20583;-79
2023/07/05 13:00:57;;;;;;;3.50;1.20;;;24.70;64.40;;;;;;5053988;28;20615;-79
2023/07/05 13:03:25;;;;;;;2.40;0.90;;;24.80;64.60;;;;;;5018622;28;20714;-79